createdAt,value
2023-10-05T00:01:47.721Z,71.69
2023-10-05T00:04:17.165Z,71.01
2023-10-05T00:06:47.964Z,70.32
2023-10-05T00:09:18.099Z,69.75
2023-10-05T00:11:46.553Z,69.49
2023-10-05T00:14:14.264Z,69.47
2023-10-05T00:16:45.931Z,69.51
2023-10-05T00:19:18.711Z,69.71
2023-10-05T00:21:52.153Z,69.53
2023-10-05T00:24:27.844Z,69.73
2023-10-05T00:26:57.313Z,69.62
2023-10-05T00:29:28.922Z,69.49
2023-10-05T00:32:00.168Z,69.52
2023-10-05T00:34:30.018Z,69.74
2023-10-05T00:37:00.150Z,69.75
2023-10-05T00:39:30.697Z,70.06
2023-10-05T00:42:09.838Z,69.99
2023-10-05T00:44:40.658Z,69.86
2023-10-05T00:47:08.455Z,69.48
2023-10-05T00:49:46.802Z,69.74
2023-10-05T00:52:17.520Z,70.75
2023-10-05T00:54:49.570Z,71.00
2023-10-05T00:57:20.841Z,72.76
2023-10-05T00:59:59.094Z,73.33
2023-10-05T01:02:27.968Z,73.57
2023-10-05T01:04:58.284Z,72.58
2023-10-05T01:07:44.836Z,71.21
2023-10-05T01:10:42.109Z,70.71
2023-10-05T01:13:34.193Z,70.30
2023-10-05T01:16:16.715Z,70.12
2023-10-05T01:18:45.181Z,70.08
2023-10-05T01:21:12.912Z,70.04
2023-10-05T01:23:43.119Z,69.89
2023-10-05T01:26:12.028Z,70.08
2023-10-05T01:28:41.932Z,70.05
2023-10-05T01:31:10.750Z,69.70
2023-10-05T01:33:39.091Z,70.16
2023-10-05T01:36:07.259Z,69.79
2023-10-05T01:38:38.929Z,69.29
2023-10-05T01:41:10.198Z,69.42
2023-10-05T01:43:43.458Z,69.27
2023-10-05T01:46:12.773Z,69.64
2023-10-05T01:48:42.008Z,69.82
2023-10-05T01:51:11.842Z,69.81
2023-10-05T01:53:41.205Z,70.10
2023-10-05T01:56:18.775Z,70.38
2023-10-05T01:58:51.331Z,70.47
2023-10-05T02:01:21.979Z,70.24
2023-10-05T02:03:51.399Z,70.58
2023-10-05T02:06:19.499Z,71.10
2023-10-05T02:08:47.163Z,71.02
2023-10-05T02:11:20.017Z,70.91
2023-10-05T02:13:48.908Z,70.53
2023-10-05T02:16:19.199Z,70.38
2023-10-05T02:18:47.584Z,70.23
2023-10-05T02:21:18.780Z,70.58
2023-10-05T02:23:48.796Z,70.48
2023-10-05T02:26:29.858Z,70.74
2023-10-05T02:28:58.930Z,70.60
2023-10-05T02:31:30.073Z,70.58
2023-10-05T02:33:59.500Z,70.42
2023-10-05T02:36:28.587Z,70.59
2023-10-05T02:38:56.226Z,70.93
2023-10-05T02:41:38.824Z,72.29
2023-10-05T02:44:18.884Z,71.88
2023-10-05T02:46:48.700Z,71.04
2023-10-05T02:49:17.673Z,70.52
2023-10-05T02:51:45.383Z,70.78
2023-10-05T02:54:14.023Z,70.77
2023-10-05T02:56:42.059Z,70.50
2023-10-05T02:59:12.116Z,70.46
2023-10-05T03:01:40.002Z,70.67
2023-10-05T03:04:17.907Z,70.51
2023-10-05T03:06:48.976Z,71.04
2023-10-05T03:09:19.244Z,70.58
2023-10-05T03:11:47.961Z,70.87
2023-10-05T03:14:17.973Z,70.38
2023-10-05T03:16:49.153Z,70.07
2023-10-05T03:19:22.376Z,70.62
2023-10-05T03:21:51.967Z,70.48
2023-10-05T03:24:20.470Z,70.58
2023-10-05T03:26:49.281Z,70.56
2023-10-05T03:29:18.239Z,70.82
2023-10-05T03:31:54.584Z,70.59
2023-10-05T03:34:26.823Z,71.16
2023-10-05T03:36:54.548Z,72.04
2023-10-05T03:39:24.240Z,71.52
2023-10-05T03:41:51.894Z,70.69
2023-10-05T03:44:20.854Z,70.66
2023-10-05T03:46:48.849Z,70.64
2023-10-05T03:49:19.103Z,71.09
2023-10-05T03:51:50.622Z,71.02
2023-10-05T03:54:19.562Z,71.13
2023-10-05T03:56:47.534Z,71.12
2023-10-05T03:59:15.599Z,71.17
2023-10-05T04:01:50.018Z,72.62
2023-10-05T04:04:18.040Z,74.18
2023-10-05T04:06:45.712Z,74.19
2023-10-05T04:09:16.802Z,74.26
2023-10-05T04:11:45.288Z,72.99
2023-10-05T04:14:13.314Z,72.10
2023-10-05T04:16:41.028Z,71.80
2023-10-05T04:19:12.266Z,71.45
2023-10-05T04:21:41.427Z,71.14
2023-10-05T04:24:13.796Z,71.04
2023-10-05T04:26:46.150Z,71.09
2023-10-05T04:29:15.779Z,72.90
2023-10-05T04:31:49.411Z,73.39
2023-10-05T04:34:20.875Z,73.50
2023-10-05T04:36:49.585Z,72.92
2023-10-05T04:39:26.653Z,73.36
2023-10-05T04:41:57.480Z,74.58
2023-10-05T04:44:25.168Z,74.73
2023-10-05T04:46:53.402Z,73.66
2023-10-05T04:49:25.067Z,73.24
2023-10-05T04:51:53.436Z,73.05
2023-10-05T04:54:26.718Z,72.54
2023-10-05T04:57:08.056Z,73.57
2023-10-05T05:00:00.118Z,74.73
2023-10-05T05:02:37.129Z,73.91
2023-10-05T05:05:35.282Z,73.26
2023-10-05T05:08:04.142Z,72.68
2023-10-05T05:10:32.444Z,72.59
2023-10-05T05:13:00.498Z,73.82
2023-10-05T05:15:29.200Z,73.86
2023-10-05T05:17:57.405Z,73.65
2023-10-05T05:20:26.555Z,73.10
2023-10-05T05:22:54.342Z,72.93
2023-10-05T05:25:22.225Z,72.85
2023-10-05T05:27:49.968Z,72.58
2023-10-05T05:30:25.250Z,72.57
2023-10-05T05:32:55.536Z,73.12
2023-10-05T05:35:23.245Z,73.82
2023-10-05T05:37:52.264Z,73.17
2023-10-05T05:40:20.008Z,79.03
2023-10-05T05:42:47.778Z,74.13
2023-10-05T05:45:17.831Z,68.47
2023-10-05T05:47:47.200Z,67.02
2023-10-05T05:50:19.002Z,70.45
2023-10-05T05:52:48.727Z,74.05
2023-10-05T05:55:22.534Z,75.95
2023-10-05T05:57:51.772Z,72.93
2023-10-05T06:00:20.678Z,68.30
2023-10-05T06:02:48.968Z,65.97
2023-10-05T06:05:17.329Z,64.67
2023-10-05T06:07:45.465Z,63.90
2023-10-05T06:10:16.455Z,63.28
2023-10-05T06:12:49.406Z,62.30
2023-10-05T06:15:17.095Z,62.29
2023-10-05T06:17:45.933Z,61.94
2023-10-05T06:20:16.207Z,61.24
2023-10-05T06:22:46.080Z,60.64
2023-10-05T06:25:16.009Z,60.24
2023-10-05T06:27:44.779Z,60.29
2023-10-05T06:30:14.979Z,59.60
2023-10-05T06:32:44.550Z,59.20
2023-10-05T06:35:13.309Z,59.00
2023-10-05T06:37:41.535Z,58.76
2023-10-05T06:40:14.464Z,58.80
2023-10-05T06:42:43.474Z,58.92
2023-10-05T06:45:14.574Z,58.46
2023-10-05T06:47:42.397Z,58.26
2023-10-05T06:50:11.711Z,59.23
2023-10-05T06:52:40.846Z,58.81
2023-10-05T06:55:09.843Z,59.98
2023-10-05T06:57:38.554Z,61.04
2023-10-05T07:00:12.801Z,62.35
2023-10-05T07:02:42.380Z,60.88
2023-10-05T07:05:11.998Z,59.87
2023-10-05T07:07:41.848Z,58.97
2023-10-05T07:10:11.266Z,58.61
2023-10-05T07:12:40.862Z,58.48
2023-10-05T07:15:09.707Z,57.95
2023-10-05T07:17:37.452Z,61.01
2023-10-05T07:20:12.358Z,62.02
2023-10-05T07:22:41.347Z,60.12
2023-10-05T07:25:11.899Z,59.03
2023-10-05T07:27:40.985Z,60.46
2023-10-05T07:30:10.896Z,62.71
2023-10-05T07:32:39.119Z,65.15
2023-10-05T07:35:09.531Z,67.45
2023-10-05T07:37:37.602Z,68.59
2023-10-05T07:40:06.853Z,68.03
2023-10-05T07:42:34.463Z,67.43
2023-10-05T07:45:02.259Z,67.78
2023-10-05T07:47:29.973Z,67.78
2023-10-05T07:49:57.662Z,65.74
2023-10-05T07:52:26.743Z,63.19
2023-10-05T07:54:54.425Z,60.92
2023-10-05T07:57:22.049Z,59.84
2023-10-05T07:59:49.758Z,59.74
2023-10-05T08:02:19.299Z,59.67
2023-10-05T08:04:49.560Z,57.77
2023-10-05T08:07:17.523Z,57.22
2023-10-05T08:09:46.642Z,56.95
2023-10-05T08:12:14.449Z,56.83
2023-10-05T08:14:42.321Z,56.41
2023-10-05T08:17:10.073Z,58.69
2023-10-05T08:19:38.029Z,58.77
2023-10-05T08:22:05.842Z,61.18
2023-10-05T08:24:35.353Z,61.68
2023-10-05T08:27:04.750Z,58.92
2023-10-05T08:29:33.690Z,57.40
2023-10-05T08:32:02.136Z,57.76
2023-10-05T08:34:33.647Z,60.90
2023-10-05T08:37:03.357Z,62.34
2023-10-05T08:39:36.602Z,63.56
2023-10-05T08:42:08.011Z,63.33
2023-10-05T08:44:39.667Z,62.52
2023-10-05T08:47:12.047Z,62.32
2023-10-05T08:49:40.740Z,62.19
2023-10-05T08:52:14.726Z,62.19
2023-10-05T08:54:46.984Z,62.84
2023-10-05T08:57:18.149Z,62.46
2023-10-05T08:59:47.695Z,63.44
2023-10-05T09:02:19.853Z,63.55
2023-10-05T09:04:52.259Z,62.74
2023-10-05T09:07:36.900Z,62.80
2023-10-05T09:10:06.945Z,62.48
2023-10-05T09:12:36.900Z,62.10
2023-10-05T09:15:08.001Z,61.30
2023-10-05T09:17:36.519Z,61.27
2023-10-05T09:20:25.989Z,60.99
2023-10-05T09:22:55.120Z,61.31
2023-10-05T09:25:28.857Z,61.47
2023-10-05T09:28:08.953Z,61.32
2023-10-05T09:30:50.717Z,61.65
2023-10-05T09:33:20.554Z,60.27
2023-10-05T09:35:48.774Z,58.64
2023-10-05T09:38:18.790Z,57.50
2023-10-05T09:40:48.267Z,57.50
2023-10-05T09:43:22.030Z,57.98
2023-10-05T09:45:53.309Z,57.73
2023-10-05T09:48:22.452Z,57.56
2023-10-05T09:50:50.163Z,57.14
2023-10-05T09:53:20.118Z,57.05
2023-10-05T09:55:51.283Z,56.05
2023-10-05T09:58:21.454Z,56.64
2023-10-05T10:00:56.440Z,55.27
2023-10-05T10:03:25.438Z,54.71
2023-10-05T10:05:56.745Z,53.98
2023-10-05T10:08:28.500Z,53.22
2023-10-05T10:11:07.844Z,54.11
2023-10-05T10:13:39.359Z,56.25
2023-10-05T10:16:28.092Z,55.57
2023-10-05T10:19:05.063Z,55.15
2023-10-05T10:21:42.357Z,53.77
2023-10-05T10:24:15.619Z,53.45
2023-10-05T10:26:45.721Z,54.38
2023-10-05T10:29:18.596Z,54.68
2023-10-05T10:31:50.272Z,54.58
2023-10-05T10:34:43.327Z,55.63
2023-10-05T10:37:12.144Z,56.46
2023-10-05T10:39:39.884Z,56.34
2023-10-05T10:42:08.656Z,56.36
2023-10-05T10:44:58.068Z,57.11
2023-10-05T10:47:27.763Z,56.84
2023-10-05T10:50:12.737Z,55.95
2023-10-05T10:52:41.319Z,55.47
2023-10-05T10:55:15.511Z,55.71
2023-10-05T10:57:47.651Z,56.29
2023-10-05T11:00:34.848Z,56.47
2023-10-05T11:03:10.745Z,54.83
2023-10-05T11:05:42.996Z,54.20
2023-10-05T11:08:11.781Z,53.76
2023-10-05T11:10:38.680Z,53.55
2023-10-05T11:13:15.529Z,53.20
2023-10-05T11:16:00.836Z,52.93
2023-10-05T11:18:31.632Z,52.46
2023-10-05T11:21:06.734Z,51.64
2023-10-05T11:23:44.788Z,52.19
2023-10-05T11:26:19.603Z,51.60
2023-10-05T11:28:50.206Z,51.89
2023-10-05T11:31:36.684Z,49.67
2023-10-05T11:35:16.950Z,50.22
2023-10-05T11:37:00.462Z,49.52
2023-10-05T11:39:29.202Z,49.83
2023-10-05T11:41:58.246Z,50.09
2023-10-05T11:44:26.814Z,49.73
2023-10-05T11:46:56.098Z,49.99
2023-10-05T11:49:31.903Z,49.88
2023-10-05T11:52:00.363Z,50.26
2023-10-05T11:54:31.198Z,50.78
2023-10-05T11:57:02.184Z,51.63
2023-10-05T11:59:31.825Z,51.56
2023-10-05T12:02:00.995Z,51.59
2023-10-05T12:04:28.897Z,51.96
2023-10-05T12:07:02.608Z,51.32
2023-10-05T12:09:33.359Z,50.55
2023-10-05T12:12:02.573Z,49.59
2023-10-05T12:14:30.202Z,49.53
2023-10-05T12:17:01.196Z,50.06
2023-10-05T12:19:30.141Z,49.75
2023-10-05T12:22:00.575Z,49.64
2023-10-05T12:24:28.614Z,49.50
2023-10-05T12:26:59.778Z,49.30
2023-10-05T12:29:29.286Z,49.30
2023-10-05T12:32:02.274Z,48.55
2023-10-05T12:34:33.007Z,47.58
2023-10-05T12:37:01.474Z,46.24
2023-10-05T12:39:30.778Z,45.79
2023-10-05T12:41:58.772Z,44.94
2023-10-05T12:44:26.578Z,44.64
2023-10-05T12:46:54.260Z,43.69
2023-10-05T12:49:22.365Z,42.96
2023-10-05T12:51:52.555Z,42.86
2023-10-05T12:54:20.357Z,41.92
2023-10-05T12:56:48.258Z,41.23
2023-10-05T12:59:16.694Z,41.10
2023-10-05T13:01:44.769Z,36.94
2023-10-05T13:04:13.100Z,37.81
2023-10-05T13:06:41.266Z,37.93
2023-10-05T13:09:14.077Z,39.17
2023-10-05T13:11:45.938Z,38.81
2023-10-05T13:14:15.662Z,39.44
2023-10-05T13:16:45.397Z,39.18
2023-10-05T13:19:14.372Z,38.23
2023-10-05T13:21:43.914Z,37.22
2023-10-05T13:24:14.069Z,37.25
2023-10-05T13:26:45.395Z,37.64
2023-10-05T13:29:13.813Z,38.56
2023-10-05T13:31:42.861Z,38.09
2023-10-05T13:34:12.663Z,37.51
2023-10-05T13:36:40.280Z,37.53
2023-10-05T13:39:11.485Z,38.00
2023-10-05T13:41:45.439Z,38.46
2023-10-05T13:44:13.090Z,38.82
2023-10-05T13:46:45.924Z,40.50
2023-10-05T13:49:14.678Z,41.69
2023-10-05T13:51:42.391Z,41.89
2023-10-05T13:54:13.938Z,43.38
2023-10-05T13:56:42.970Z,43.78
2023-10-05T13:59:18.562Z,43.85
2023-10-05T14:01:47.139Z,43.69
2023-10-05T14:04:19.733Z,44.25
2023-10-05T14:06:47.638Z,43.77
2023-10-05T14:09:17.174Z,44.60
2023-10-05T14:11:46.771Z,45.79
2023-10-05T14:14:15.964Z,45.64
2023-10-05T14:16:50.371Z,45.64
2023-10-05T14:19:19.099Z,45.41
2023-10-05T14:21:47.531Z,44.48
2023-10-05T14:24:18.893Z,45.73
2023-10-05T14:26:50.350Z,45.74
2023-10-05T14:29:18.586Z,45.73
2023-10-05T14:31:49.388Z,45.96
2023-10-05T14:34:20.016Z,45.77
2023-10-05T14:36:49.899Z,45.93
2023-10-05T14:39:22.657Z,46.56
2023-10-05T14:41:56.108Z,48.23
2023-10-05T14:44:26.433Z,48.13
2023-10-05T14:46:56.468Z,47.44
2023-10-05T14:49:24.467Z,47.38
2023-10-05T14:51:52.616Z,47.95
2023-10-05T14:54:23.304Z,48.70
2023-10-05T14:56:52.809Z,47.85
2023-10-05T14:59:20.819Z,46.97
2023-10-05T15:01:48.593Z,46.24
2023-10-05T15:04:18.092Z,46.07
2023-10-05T15:06:45.723Z,45.96
2023-10-05T15:09:21.526Z,47.07
2023-10-05T15:11:49.379Z,47.59
2023-10-05T15:14:18.726Z,46.92
2023-10-05T15:16:46.405Z,48.33
2023-10-05T15:19:14.137Z,49.05
2023-10-05T15:21:42.156Z,50.35
2023-10-05T15:24:12.356Z,52.17
2023-10-05T15:26:41.381Z,53.21
2023-10-05T15:29:11.390Z,54.52
2023-10-05T15:31:43.095Z,56.42
2023-10-05T15:34:10.859Z,55.82
2023-10-05T15:36:39.177Z,55.40
2023-10-05T15:39:08.222Z,56.81
2023-10-05T15:41:36.714Z,56.54
2023-10-05T15:44:05.572Z,56.40
2023-10-05T15:46:32.330Z,56.07
2023-10-05T15:49:01.759Z,55.39
2023-10-05T15:51:32.338Z,56.18
2023-10-05T15:54:02.856Z,57.25
2023-10-05T15:56:31.083Z,57.35
2023-10-05T15:59:00.569Z,57.43
2023-10-05T16:01:28.605Z,58.13
2023-10-05T16:03:57.638Z,57.69
2023-10-05T16:06:27.514Z,56.86
2023-10-05T16:08:58.303Z,56.85
2023-10-05T16:11:26.192Z,56.83
2023-10-05T16:13:53.792Z,57.33
2023-10-05T16:16:22.223Z,57.66
2023-10-05T16:18:50.014Z,57.19
2023-10-05T16:21:17.569Z,58.20
2023-10-05T16:23:46.484Z,58.97
2023-10-05T16:26:14.219Z,58.71
2023-10-05T16:28:41.854Z,58.60
2023-10-05T16:31:09.461Z,58.85
2023-10-05T16:33:37.360Z,58.45
2023-10-05T16:36:05.642Z,57.94
2023-10-05T16:38:33.865Z,57.28
2023-10-05T16:41:03.139Z,56.48
2023-10-05T16:43:30.842Z,56.38
2023-10-05T16:45:59.062Z,57.75
2023-10-05T16:48:27.739Z,59.62
2023-10-05T16:50:55.558Z,59.14
2023-10-05T16:53:23.145Z,59.75
2023-10-05T16:55:51.098Z,60.21
2023-10-05T16:58:20.365Z,61.61
2023-10-05T17:00:48.178Z,62.00
2023-10-05T17:03:16.574Z,62.57
2023-10-05T17:05:44.451Z,61.30
2023-10-05T17:08:12.073Z,60.44
2023-10-05T17:10:40.989Z,59.67
2023-10-05T17:13:08.818Z,58.98
2023-10-05T17:15:38.114Z,59.32
2023-10-05T17:18:06.622Z,60.77
2023-10-05T17:20:34.494Z,62.20
2023-10-05T17:23:02.130Z,61.79
2023-10-05T17:25:29.846Z,60.16
2023-10-05T17:27:57.851Z,58.58
2023-10-05T17:30:25.665Z,59.12
2023-10-05T17:32:54.590Z,60.00
2023-10-05T17:35:24.294Z,60.61
2023-10-05T17:37:52.674Z,61.17
2023-10-05T17:40:23.194Z,61.78
2023-10-05T17:42:51.023Z,63.18
2023-10-05T17:45:19.504Z,61.95
2023-10-05T17:47:47.247Z,60.48
2023-10-05T17:50:17.085Z,61.55
2023-10-05T17:52:45.727Z,63.38
2023-10-05T17:55:13.925Z,63.75
2023-10-05T17:57:41.615Z,64.14
2023-10-05T18:00:16.189Z,64.45
2023-10-05T18:02:44.703Z,64.66
2023-10-05T18:05:16.431Z,64.88
2023-10-05T18:07:45.889Z,65.06
2023-10-05T18:10:13.736Z,65.15
2023-10-05T18:12:41.845Z,65.40
2023-10-05T18:15:10.174Z,65.63
2023-10-05T18:17:38.086Z,66.52
2023-10-05T18:20:08.310Z,64.02
2023-10-05T18:22:35.910Z,62.63
2023-10-05T18:25:05.591Z,61.57
2023-10-05T18:27:33.270Z,61.77
2023-10-05T18:30:01.017Z,63.38
2023-10-05T18:32:29.631Z,64.19
2023-10-05T18:34:57.354Z,64.95
2023-10-05T18:37:25.052Z,65.22
2023-10-05T18:39:52.659Z,65.21
2023-10-05T18:42:21.658Z,65.65
2023-10-05T18:44:50.036Z,66.16
2023-10-05T18:47:17.837Z,66.37
2023-10-05T18:49:45.485Z,66.35
2023-10-05T18:52:14.999Z,66.52
2023-10-05T18:54:43.531Z,66.79
2023-10-05T18:57:12.078Z,66.75
2023-10-05T18:59:41.257Z,67.25
2023-10-05T19:02:09.616Z,67.82
2023-10-05T19:04:37.339Z,70.73
2023-10-05T19:07:04.955Z,67.63
2023-10-05T19:09:33.032Z,64.80
2023-10-05T19:12:01.895Z,63.97
2023-10-05T19:14:29.495Z,64.92
2023-10-05T19:16:59.304Z,65.89
2023-10-05T19:19:26.936Z,67.27
2023-10-05T19:21:54.633Z,67.95
2023-10-05T19:24:22.311Z,67.04
2023-10-05T19:26:50.103Z,67.16
2023-10-05T19:29:18.277Z,66.64
2023-10-05T19:31:46.042Z,66.63
2023-10-05T19:34:16.402Z,67.06
2023-10-05T19:36:44.040Z,67.08
2023-10-05T19:39:12.216Z,67.40
2023-10-05T19:41:39.902Z,68.21
2023-10-05T19:44:07.929Z,66.38
2023-10-05T19:46:37.038Z,64.31
2023-10-05T19:49:07.368Z,62.65
2023-10-05T19:51:36.454Z,63.59
2023-10-05T19:54:04.850Z,64.77
2023-10-05T19:56:37.439Z,65.98
2023-10-05T19:59:05.862Z,66.36
2023-10-05T20:01:33.741Z,69.90
2023-10-05T20:04:01.801Z,67.21
2023-10-05T20:06:29.954Z,65.56
2023-10-05T20:08:59.397Z,63.19
2023-10-05T20:11:27.051Z,63.08
2023-10-05T20:13:54.735Z,64.26
2023-10-05T20:16:22.503Z,64.87
2023-10-05T20:18:50.121Z,66.56
2023-10-05T20:21:17.921Z,66.32
2023-10-05T20:23:45.504Z,65.62
2023-10-05T20:26:14.411Z,64.73
2023-10-05T20:28:42.178Z,64.19
2023-10-05T20:31:11.070Z,64.96
2023-10-05T20:33:38.842Z,64.39
2023-10-05T20:36:08.045Z,65.22
2023-10-05T20:38:36.178Z,66.72
2023-10-05T20:41:06.238Z,65.67
2023-10-05T20:43:35.603Z,64.19
2023-10-05T20:46:06.598Z,61.36
2023-10-05T20:48:35.111Z,62.51
2023-10-05T20:51:02.881Z,63.81
2023-10-05T20:53:30.408Z,67.73
2023-10-05T20:55:58.197Z,65.01
2023-10-05T20:58:26.036Z,62.13
2023-10-05T21:00:55.429Z,63.27
2023-10-05T21:03:23.136Z,64.25
2023-10-05T21:05:50.811Z,65.35
2023-10-05T21:08:18.365Z,65.98
2023-10-05T21:10:47.891Z,66.37
2023-10-05T21:13:15.594Z,66.90
2023-10-05T21:15:43.179Z,67.91
2023-10-05T21:18:12.144Z,68.67
2023-10-05T21:20:40.207Z,68.72
2023-10-05T21:23:07.888Z,69.48
2023-10-05T21:25:35.737Z,69.52
2023-10-05T21:28:03.732Z,69.36
2023-10-05T21:30:31.506Z,68.87
2023-10-05T21:32:59.150Z,68.76
2023-10-05T21:35:28.145Z,68.52
2023-10-05T21:37:57.200Z,69.14
2023-10-05T21:40:24.892Z,70.54
2023-10-05T21:42:52.494Z,71.51
2023-10-05T21:45:20.677Z,71.68
2023-10-05T21:47:49.258Z,70.94
2023-10-05T21:50:20.187Z,70.20
2023-10-05T21:52:49.671Z,69.28
2023-10-05T21:55:17.276Z,69.32
2023-10-05T21:57:44.868Z,69.39
2023-10-05T22:00:20.093Z,71.19
2023-10-05T22:02:47.855Z,72.12
2023-10-05T22:05:16.929Z,72.54
2023-10-05T22:07:46.099Z,71.53
2023-10-05T22:10:15.156Z,70.55
2023-10-05T22:12:42.758Z,70.33
2023-10-05T22:15:11.778Z,70.22
2023-10-05T22:17:39.419Z,70.19
2023-10-05T22:20:13.802Z,70.12
2023-10-05T22:22:41.799Z,69.82
2023-10-05T22:25:11.158Z,70.12
2023-10-05T22:27:40.130Z,70.18
2023-10-05T22:30:09.345Z,70.53
2023-10-05T22:32:37.365Z,70.63
2023-10-05T22:35:05.689Z,70.68
2023-10-05T22:37:33.344Z,70.74
2023-10-05T22:40:01.010Z,70.51
2023-10-05T22:42:28.599Z,70.43
2023-10-05T22:44:57.523Z,70.38
2023-10-05T22:47:26.038Z,70.01
2023-10-05T22:49:53.722Z,69.72
2023-10-05T22:52:21.539Z,69.92
2023-10-05T22:54:49.184Z,71.37
2023-10-05T22:57:16.783Z,71.13
2023-10-05T22:59:45.123Z,70.67
2023-10-05T23:02:15.310Z,70.39
2023-10-05T23:04:44.059Z,71.15
2023-10-05T23:07:12.118Z,71.15
2023-10-05T23:09:40.608Z,71.10
2023-10-05T23:12:12.203Z,71.36
2023-10-05T23:14:40.051Z,71.43
2023-10-05T23:17:08.870Z,71.16
2023-10-05T23:19:38.640Z,71.18
2023-10-05T23:22:06.481Z,71.46
2023-10-05T23:24:35.550Z,71.54
2023-10-05T23:27:05.342Z,71.02
2023-10-05T23:29:33.361Z,71.22
2023-10-05T23:32:01.615Z,71.30
2023-10-05T23:34:36.465Z,71.25
2023-10-05T23:37:09.068Z,71.42
2023-10-05T23:39:37.088Z,71.08
2023-10-05T23:42:11.820Z,70.86
2023-10-05T23:44:40.704Z,71.66
2023-10-05T23:47:23.884Z,71.99
2023-10-05T23:49:54.363Z,73.37
2023-10-05T23:52:24.114Z,73.96
2023-10-05T23:54:51.685Z,74.50
2023-10-05T23:57:21.512Z,73.18
2023-10-05T23:59:49.882Z,72.60
